Time;durP1;ratioP1;P1;durP2;ratioP2;P2;SDS_P1;SDS_P2;PMS_P1;PMS_P2;Temp;Humidity;BMP_temperature;BMP_pressure;BME280_temperature;BME280_humidity;BME280_pressure;Samples;Min_cycle;Max_cycle;Signal;HPM_P1;HPM_P2
2022/02/02 00:01:51;;;;;;;1.92;1.07;;;5.90;99.90;;;;;;1849249;77;21120;-74
2022/02/02 00:04:14;;;;;;;1.95;1.37;;;5.90;99.90;;;;;;1847445;76;21481;-74
2022/02/02 00:06:47;;;;;;;2.98;1.45;;;5.80;99.90;;;;;;1849171;77;21071;-74
2022/02/02 00:09:16;;;;;;;2.70;1.20;;;5.80;99.90;;;;;;1847950;77;21482;-76
2022/02/02 00:14:26;;;;;;;2.75;1.20;;;5.80;99.90;;;;;;1849205;77;21124;-74
2022/02/02 00:16:52;;;;;;;1.90;1.65;;;5.90;99.90;;;;;;1847317;77;21196;-74
2022/02/02 00:19:28;;;;;;;1.52;1.32;;;5.90;99.90;;;;;;1848840;77;21173;-74
2022/02/02 00:21:53;;;;;;;2.25;1.37;;;6.00;99.90;;;;;;1847539;77;21090;-74
2022/02/02 00:24:36;;;;;;;3.20;1.50;;;6.00;99.90;;;;;;1849405;76;21462;-74
2022/02/02 00:26:59;;;;;;;1.47;1.37;;;6.10;99.90;;;;;;1847414;77;21106;-75
2022/02/02 00:29:32;;;;;;;3.65;1.77;;;6.00;99.90;;;;;;1848886;77;21093;-75
2022/02/02 00:32:02;;;;;;;4.78;1.82;;;6.10;99.90;;;;;;1847938;77;21148;-75
2022/02/02 00:34:25;;;;;;;3.08;1.80;;;6.10;99.90;;;;;;1847513;77;21412;-75
2022/02/02 00:36:58;;;;;;;2.15;1.30;;;6.10;99.90;;;;;;1848818;77;21113;-75
2022/02/02 00:39:27;;;;;;;4.80;1.57;;;6.10;99.90;;;;;;1851886;74;21147;-75
2022/02/02 00:41:56;;;;;;;4.25;1.82;;;6.10;99.90;;;;;;1858289;77;21513;-75
2022/02/02 00:44:24;;;;;;;4.10;1.47;;;6.10;99.90;;;;;;1834455;78;21153;-76
2022/02/02 00:46:53;;;;;;;5.83;1.60;;;6.20;99.90;;;;;;1834241;78;21435;-75
2022/02/02 00:49:20;;;;;;;4.10;1.95;;;6.20;99.90;;;;;;1834166;78;21105;-75
2022/02/02 00:51:51;;;;;;;3.90;1.75;;;6.30;99.90;;;;;;1839731;77;21087;-74
2022/02/02 00:54:20;;;;;;;6.22;1.90;;;6.40;99.90;;;;;;1834134;76;21090;-76
2022/02/02 00:56:48;;;;;;;2.70;1.52;;;6.40;99.90;;;;;;1834293;76;21156;-74
2022/02/02 00:59:16;;;;;;;3.42;1.52;;;6.40;99.90;;;;;;1840331;76;21070;-74
2022/02/02 01:01:43;;;;;;;3.62;1.77;;;6.50;99.90;;;;;;1845835;76;21086;-74
2022/02/02 01:04:10;;;;;;;4.95;1.65;;;6.50;99.90;;;;;;1834331;78;21101;-74
2022/02/02 01:06:43;;;;;;;3.35;1.50;;;6.40;99.90;;;;;;1839687;77;21517;-74
2022/02/02 01:12:04;;;;;;;5.05;1.70;;;6.40;99.90;;;;;;1843986;77;21110;-75
2022/02/02 01:17:24;;;;;;;2.42;1.60;;;6.40;99.90;;;;;;1846926;76;21119;-75
2022/02/02 01:19:40;;;;;;;8.50;1.50;;;6.30;99.90;;;;;;1852278;76;21168;-75
2022/02/02 01:30:10;;;;;;;1.12;0.80;;;6.60;99.90;;;;;;1874038;75;21088;-76
2022/02/02 01:32:38;;;;;;;2.47;1.13;;;6.70;99.90;;;;;;1869236;76;21034;-75
2022/02/02 01:35:13;;;;;;;2.70;1.35;;;6.70;99.90;;;;;;1873838;76;21230;-75
2022/02/02 01:37:35;;;;;;;3.85;1.30;;;6.70;99.90;;;;;;1868323;76;21102;-75
2022/02/02 01:40:11;;;;;;;2.30;1.22;;;6.80;99.90;;;;;;1874322;76;21091;-75
2022/02/02 01:42:40;;;;;;;3.15;1.10;;;6.80;99.90;;;;;;1869745;76;21517;-74
2022/02/02 01:45:17;;;;;;;1.77;0.90;;;6.80;99.90;;;;;;1866613;76;21113;-75
2022/02/02 01:47:46;;;;;;;5.78;1.22;;;6.70;99.90;;;;;;1872253;76;21207;-75
2022/02/02 01:50:26;;;;;;;2.47;1.10;;;6.80;99.90;;;;;;1873645;76;21566;-74
2022/02/02 01:53:00;;;;;;;2.92;1.25;;;6.70;99.90;;;;;;1863574;76;21177;-75
2022/02/02 01:55:09;;;;;;;3.02;1.45;;;6.80;99.90;;;;;;1868699;76;21090;-75
2022/02/02 02:00:13;;;;;;;5.30;1.32;;;6.90;99.90;;;;;;1872955;75;21145;-74
2022/02/02 02:02:41;;;;;;;3.58;1.30;;;7.00;99.90;;;;;;1871472;76;21043;-74
2022/02/02 02:05:08;;;;;;;3.12;1.30;;;7.20;99.90;;;;;;1874095;75;21502;-76
2022/02/02 02:07:35;;;;;;;4.30;1.37;;;7.30;99.90;;;;;;1869210;76;21133;-76
2022/02/02 02:10:03;;;;;;;2.80;1.17;;;7.40;99.90;;;;;;1875134;76;21029;-77
2022/02/02 02:12:43;;;;;;;2.83;1.17;;;7.40;99.90;;;;;;1875845;76;21031;-75
2022/02/02 02:15:07;;;;;;;3.42;1.20;;;7.40;99.90;;;;;;1871235;76;21533;-76
2022/02/02 02:17:35;;;;;;;14.93;1.42;;;7.40;99.90;;;;;;1865500;76;21147;-76
2022/02/02 02:20:02;;;;;;;3.90;1.20;;;7.40;99.90;;;;;;1858256;76;21095;-75
2022/02/02 02:22:35;;;;;;;3.98;1.20;;;7.40;99.90;;;;;;1858816;77;21057;-74
2022/02/02 02:24:59;;;;;;;1.10;0.95;;;7.50;99.90;;;;;;1859695;74;21099;-75
2022/02/02 02:27:26;;;;;;;13.45;1.55;;;7.60;99.90;;;;;;1858999;76;21046;-75
2022/02/02 02:56:57;;;;;;;3.60;1.62;;;6.50;99.90;;;;;;1815267;77;21088;-74
2022/02/02 02:59:41;;;;;;;3.90;1.77;;;6.50;99.90;;;;;;1834315;78;21494;-75
2022/02/02 03:02:19;;;;;;;4.97;1.82;;;6.50;99.90;;;;;;1835604;77;21136;-75
2022/02/02 03:35:11;;;;;;;16.30;3.62;;;7.30;99.90;;;;;;1867174;77;21165;-75
2022/02/02 03:49:26;;;;;;;14.80;2.98;;;7.60;99.90;;;;;;1858864;75;21142;-75
2022/02/02 03:56:33;;;;;;;21.40;2.90;;;8.00;99.90;;;;;;1835615;77;21148;-75
2022/02/02 03:59:22;;;;;;;12.47;3.00;;;7.90;99.90;;;;;;1848381;76;21513;-75
2022/02/02 04:02:06;;;;;;;9.90;2.83;;;7.90;99.90;;;;;;1843511;76;21055;-75
2022/02/02 04:09:25;;;;;;;16.90;2.92;;;7.80;99.90;;;;;;1854218;76;21464;-75
2022/02/02 04:12:28;;;;;;;11.20;3.05;;;7.80;99.90;;;;;;1855146;75;21214;-75
2022/02/02 04:15:23;;;;;;;7.15;2.20;;;7.90;99.90;;;;;;1843377;76;21092;-75
2022/02/02 04:39:06;;;;;;;16.32;3.02;;;7.70;99.90;;;;;;1869972;76;21162;-74
2022/02/02 04:52:43;;;;;;;24.55;3.27;;;7.70;99.90;;;;;;1799462;78;21140;-76
2022/02/02 05:00:41;;;;;;;11.00;2.55;;;7.80;99.90;;;;;;1854354;75;21104;-77
2022/02/02 05:08:11;;;;;;;26.52;3.25;;;7.70;99.90;;;;;;1858119;76;21136;-76
2022/02/02 05:10:58;;;;;;;16.62;3.30;;;7.70;99.90;;;;;;1848985;76;21110;-77
2022/02/02 05:16:24;;;;;;;12.53;2.77;;;7.80;99.90;;;;;;1852806;77;21091;-77
2022/02/02 05:51:23;;;;;;;9.88;2.92;;;8.00;99.90;;;;;;1778975;78;21149;-80
2022/02/02 05:53:44;;;;;;;14.33;3.12;;;7.90;99.90;;;;;;1847784;77;21082;-79
2022/02/02 05:56:12;;;;;;;9.23;2.20;;;7.90;99.90;;;;;;1834097;78;21128;-79
2022/02/02 05:58:40;;;;;;;9.35;2.70;;;7.80;99.90;;;;;;1834253;78;21113;-79
2022/02/02 06:01:08;;;;;;;13.53;3.17;;;7.80;99.90;;;;;;1868511;76;21091;-80
2022/02/02 06:03:44;;;;;;;13.10;2.85;;;7.80;99.90;;;;;;1847828;76;21094;-79
2022/02/02 06:06:12;;;;;;;12.80;3.02;;;7.70;99.90;;;;;;1831919;76;21479;-80
2022/02/02 06:08:43;;;;;;;14.13;2.80;;;7.80;99.90;;;;;;1866004;76;21541;-79
2022/02/02 06:11:17;;;;;;;9.08;2.72;;;7.70;99.90;;;;;;1875928;76;21117;-80
2022/02/02 06:13:52;;;;;;;10.75;2.62;;;7.80;99.90;;;;;;1863136;75;21083;-79
2022/02/02 06:16:16;;;;;;;18.73;3.37;;;7.80;99.90;;;;;;1831165;77;21563;-80
2022/02/02 06:18:45;;;;;;;17.32;3.37;;;7.80;99.90;;;;;;1832322;78;21015;-80
2022/02/02 06:21:13;;;;;;;15.72;3.15;;;7.90;99.90;;;;;;1834231;77;21141;-82
2022/02/02 06:23:48;;;;;;;12.63;3.10;;;7.90;99.90;;;;;;1840408;76;21086;-81
2022/02/02 06:26:17;;;;;;;12.28;3.35;;;7.80;99.90;;;;;;1862398;76;21112;-81
2022/02/02 06:28:45;;;;;;;18.55;3.35;;;7.90;99.90;;;;;;1832984;75;21079;-78
2022/02/02 06:31:14;;;;;;;9.80;2.77;;;7.90;99.90;;;;;;1845849;77;21078;-78
2022/02/02 06:33:42;;;;;;;9.90;3.05;;;8.00;99.90;;;;;;1868637;76;21062;-79
2022/02/02 06:36:11;;;;;;;16.30;3.52;;;8.00;99.90;;;;;;1891938;75;21108;-77
2022/02/02 06:38:39;;;;;;;12.73;3.15;;;8.00;99.90;;;;;;1889786;76;21053;-79
2022/02/02 06:41:07;;;;;;;10.70;2.70;;;8.10;99.90;;;;;;1875826;76;21063;-79
2022/02/02 06:43:35;;;;;;;22.93;4.22;;;8.10;99.90;;;;;;1859477;75;21156;-77
2022/02/02 06:46:03;;;;;;;11.35;2.90;;;8.10;99.90;;;;;;1864831;75;21181;-78
2022/02/02 06:48:33;;;;;;;17.77;3.67;;;8.10;99.90;;;;;;1874939;75;21135;-78
2022/02/02 06:51:12;;;;;;;22.65;3.67;;;8.20;99.90;;;;;;1875768;76;21099;-76
2022/02/02 06:53:55;;;;;;;16.93;3.60;;;8.30;99.90;;;;;;1889253;75;21476;-77
2022/02/02 06:56:39;;;;;;;9.35;2.77;;;8.40;99.90;;;;;;1876282;75;21428;-77
2022/02/02 07:10:37;;;;;;;27.27;3.92;;;8.10;99.90;;;;;;1768817;79;21227;-79
2022/02/02 07:13:18;;;;;;;12.55;2.90;;;8.10;99.90;;;;;;1875690;74;21142;-79
2022/02/02 07:16:11;;;;;;;15.95;3.40;;;8.10;99.90;;;;;;1871517;75;21160;-79
2022/02/02 07:23:55;;;;;;;20.68;3.58;;;8.20;99.90;;;;;;1834347;76;21565;-79
2022/02/02 07:28:58;;;;;;;15.68;3.25;;;8.20;99.90;;;;;;1845369;77;21255;-78
2022/02/02 07:31:34;;;;;;;18.52;3.22;;;8.20;99.90;;;;;;1843731;77;21412;-77
2022/02/02 07:33:56;;;;;;;12.43;2.87;;;8.20;99.90;;;;;;1839560;77;21074;-79
2022/02/02 07:36:31;;;;;;;14.65;2.98;;;8.20;99.90;;;;;;1842876;76;21487;-78
2022/02/02 07:38:57;;;;;;;14.00;3.08;;;8.20;99.90;;;;;;1833472;78;21047;-77
2022/02/02 07:41:30;;;;;;;14.65;3.30;;;8.20;99.90;;;;;;1838408;77;21467;-78
2022/02/02 07:44:02;;;;;;;19.75;3.52;;;8.20;99.90;;;;;;1837998;77;21064;-76
2022/02/02 07:46:27;;;;;;;18.50;3.55;;;8.20;99.90;;;;;;1833550;77;21492;-77
2022/02/02 07:48:54;;;;;;;13.68;3.12;;;8.20;99.90;;;;;;1846024;77;21066;-77
2022/02/02 07:51:22;;;;;;;11.60;3.05;;;8.20;99.90;;;;;;1848052;77;21042;-76
2022/02/02 07:53:52;;;;;;;19.02;3.40;;;8.20;99.90;;;;;;1852086;76;21471;-77
2022/02/02 07:56:29;;;;;;;11.22;3.25;;;8.20;99.90;;;;;;1874828;76;21123;-81
2022/02/02 07:59:11;;;;;;;23.32;3.83;;;8.20;99.90;;;;;;1874856;75;21111;-79
2022/02/02 08:01:24;;;;;;;;;;;8.30;99.90;;;;;;1833836;77;21075;-82
2022/02/02 08:03:55;;;;;;;11.95;2.85;;;8.20;99.90;;;;;;1849703;76;20124;-77
2022/02/02 08:06:24;;;;;;;13.15;3.50;;;8.20;99.90;;;;;;1851936;75;21552;-77
2022/02/02 08:08:51;;;;;;;17.07;3.52;;;8.00;99.90;;;;;;1835315;76;21144;-78
2022/02/02 08:11:28;;;;;;;12.53;2.95;;;8.00;99.90;;;;;;1892289;76;21539;-79
2022/02/02 08:13:54;;;;;;;18.40;3.37;;;8.00;99.90;;;;;;1861671;74;21121;-76
2022/02/02 08:16:18;;;;;;;14.63;3.52;;;8.00;99.90;;;;;;1877778;74;21495;-78
2022/02/02 08:18:47;;;;;;;16.48;3.70;;;8.00;99.90;;;;;;1869626;76;21063;-78
2022/02/02 08:21:14;;;;;;;19.87;3.45;;;8.00;99.90;;;;;;1855336;74;21083;-78
2022/02/02 08:23:42;;;;;;;16.50;3.47;;;8.00;99.90;;;;;;1848442;77;21043;-82
2022/02/02 08:26:28;;;;;;;23.73;3.80;;;8.00;99.90;;;;;;1834493;76;21175;-78
2022/02/02 08:28:58;;;;;;;14.53;3.92;;;8.00;99.90;;;;;;1768334;81;21104;-78
2022/02/02 08:31:27;;;;;;;17.35;3.98;;;8.00;99.90;;;;;;1808403;78;21116;-78
2022/02/02 08:33:59;;;;;;;17.62;3.55;;;8.00;99.90;;;;;;1769715;80;21124;-80
2022/02/02 08:36:23;;;;;;;12.70;3.55;;;8.00;99.90;;;;;;1785145;79;21220;-75
2022/02/02 08:39:09;;;;;;;11.48;3.05;;;8.00;99.90;;;;;;1769097;80;21244;-74
2022/02/02 08:41:36;;;;;;;20.17;3.35;;;8.10;99.90;;;;;;1777651;77;21536;-76
2022/02/02 08:44:12;;;;;;;17.90;3.12;;;8.10;99.90;;;;;;1772678;79;21618;-78
2022/02/02 08:46:41;;;;;;;10.65;3.12;;;8.10;99.90;;;;;;1781180;79;21133;-78
2022/02/02 08:49:11;;;;;;;12.85;4.00;;;8.10;99.90;;;;;;1774124;80;21148;-79
2022/02/02 08:51:44;;;;;;;11.85;3.58;;;8.10;99.90;;;;;;1775970;79;21542;-79
2022/02/02 08:54:58;;;;;;;15.48;3.05;;;8.10;99.90;;;;;;1781807;79;21095;-77
2022/02/02 09:00:10;;;;;;;6.47;2.25;;;8.00;99.90;;;;;;1766231;80;21119;-77
2022/02/02 09:01:40;;;;;;;16.30;2.85;;;7.90;99.90;;;;;;1769205;80;21511;-78
2022/02/02 09:06:52;;;;;;;12.05;2.87;;;7.80;99.90;;;;;;1783692;80;21186;-78
2022/02/02 09:09:38;;;;;;;13.32;3.02;;;7.70;99.90;;;;;;1770093;80;21218;-77
2022/02/02 09:20:52;;;;;;;14.30;3.70;;;7.80;99.90;;;;;;1779580;80;21526;-80
2022/02/02 09:25:33;;;;;;;15.70;3.77;;;8.00;99.90;;;;;;1777545;80;21126;-77
2022/02/02 09:36:14;;;;;;;21.80;4.12;;;8.20;99.90;;;;;;1782999;80;21109;-79
2022/02/02 09:38:35;;;;;;;12.70;3.20;;;8.20;99.90;;;;;;1770029;80;21102;-78
2022/02/02 09:43:35;;;;;;;14.70;3.58;;;8.30;99.90;;;;;;1775739;80;21098;-78
2022/02/02 09:46:09;;;;;;;18.75;4.10;;;8.30;99.90;;;;;;1777859;80;21489;-78
2022/02/02 09:48:45;;;;;;;13.20;3.27;;;8.40;99.90;;;;;;1770167;80;21173;-78
2022/02/02 09:51:07;;;;;;;19.27;4.10;;;8.40;99.90;;;;;;1795538;78;21208;-78
2022/02/02 09:53:39;;;;;;;12.68;3.05;;;8.70;99.90;;;;;;1770762;78;21119;-79
2022/02/02 09:59:02;;;;;;;20.25;4.50;;;9.10;99.90;;;;;;1782615;80;21117;-77
2022/02/02 10:01:42;;;;;;;11.90;3.47;;;8.90;99.90;;;;;;1766483;80;21231;-78
2022/02/02 10:04:37;;;;;;;14.93;3.58;;;8.90;99.90;;;;;;1776309;80;21087;-77
2022/02/02 10:07:31;;;;;;;20.57;3.65;;;8.90;99.90;;;;;;1826556;77;21098;-77
2022/02/02 10:09:56;;;;;;;11.28;3.58;;;8.80;99.90;;;;;;1808950;77;21237;-78
2022/02/02 10:15:20;;;;;;;22.55;3.85;;;8.90;99.90;;;;;;1779556;80;21181;-79
2022/02/02 10:17:58;;;;;;;11.53;3.27;;;9.00;99.90;;;;;;1792195;80;21088;-78
2022/02/02 10:20:28;;;;;;;18.90;3.98;;;9.00;99.90;;;;;;1799510;78;21484;-79
2022/02/02 10:22:58;;;;;;;17.80;3.50;;;9.10;99.90;;;;;;1773297;80;21152;-79
2022/02/02 10:25:35;;;;;;;20.27;4.20;;;9.40;99.90;;;;;;1814311;78;21064;-78
2022/02/02 10:28:20;;;;;;;22.87;4.22;;;9.70;99.90;;;;;;1767502;81;21245;-80
2022/02/02 10:30:50;;;;;;;13.75;3.37;;;9.90;99.90;;;;;;1779279;80;21082;-79
2022/02/02 10:33:25;;;;;;;15.60;4.25;;;10.20;99.90;;;;;;1772414;80;21103;-79
2022/02/02 10:35:59;;;;;;;16.10;3.60;;;10.10;99.90;;;;;;1814685;79;21076;-79
2022/02/02 10:38:29;;;;;;;13.60;3.10;;;10.00;99.90;;;;;;1768499;80;21510;-75
2022/02/02 10:43:40;;;;;;;10.60;2.90;;;9.90;99.90;;;;;;1818285;78;21178;-75
2022/02/02 10:46:23;;;;;;;7.97;2.70;;;9.70;99.90;;;;;;1807230;78;21517;-84
2022/02/02 10:48:52;;;;;;;11.68;2.65;;;9.80;99.90;;;;;;1779357;80;21118;-84
2022/02/02 10:51:26;;;;;;;14.75;2.80;;;9.60;99.90;;;;;;1770846;80;21503;-86
2022/02/02 10:54:08;;;;;;;12.05;3.00;;;9.40;99.90;;;;;;1800225;78;21143;-85
2022/02/02 10:56:41;;;;;;;11.08;3.05;;;9.20;99.90;;;;;;1769363;80;21462;-86
2022/02/02 11:06:50;;;;;;;16.85;3.67;;;9.30;99.90;;;;;;1803288;79;21259;-86
2022/02/02 11:09:19;;;;;;;22.52;4.28;;;9.40;99.90;;;;;;1768882;79;21111;-85
2022/02/02 11:11:48;;;;;;;17.92;3.50;;;9.30;99.90;;;;;;1806338;78;21095;-84
2022/02/02 11:14:22;;;;;;;19.37;4.00;;;9.50;99.90;;;;;;1778852;80;21113;-85
2022/02/02 11:16:58;;;;;;;14.30;2.95;;;9.70;99.90;;;;;;1810382;79;21096;-83
2022/02/02 11:19:28;;;;;;;16.12;3.35;;;10.10;99.90;;;;;;1801469;80;21118;-84
2022/02/02 11:21:55;;;;;;;19.52;4.12;;;10.10;99.90;;;;;;1801669;79;21064;-85
2022/02/02 11:24:24;;;;;;;14.87;3.67;;;10.30;99.90;;;;;;1775862;80;21092;-84
2022/02/02 11:26:51;;;;;;;15.72;3.30;;;10.70;99.90;;;;;;1768818;81;21325;-84
2022/02/02 11:29:40;;;;;;;18.35;4.35;;;11.00;99.90;;;;;;1773510;80;21507;-85
2022/02/02 11:32:10;;;;;;;21.10;4.28;;;11.10;99.90;;;;;;1794462;80;21056;-85
2022/02/02 11:34:40;;;;;;;16.30;3.10;;;11.50;99.90;;;;;;1770248;80;21511;-85
2022/02/02 11:37:08;;;;;;;18.48;4.00;;;11.60;99.90;;;;;;1766750;80;21381;-83
2022/02/02 11:39:49;;;;;;;12.28;3.45;;;11.10;99.90;;;;;;1766773;80;21096;-83
2022/02/02 11:42:39;;;;;;;12.98;3.62;;;11.20;99.90;;;;;;1764883;80;21556;-82
2022/02/02 11:45:14;;;;;;;14.00;4.10;;;10.80;99.90;;;;;;1801005;80;21080;-78
2022/02/02 11:47:44;;;;;;;27.00;4.22;;;10.70;99.90;;;;;;1767890;81;21530;-77
2022/02/02 11:50:10;;;;;;;17.70;3.87;;;10.70;99.90;;;;;;1819315;79;21088;-81
2022/02/02 11:52:49;;;;;;;15.50;3.20;;;10.50;99.90;;;;;;1773590;80;21098;-87
2022/02/02 11:55:23;;;;;;;16.32;3.10;;;10.30;99.90;;;;;;1814125;78;21076;-83
2022/02/02 11:58:12;;;;;;;15.23;3.60;;;10.40;99.90;;;;;;1766197;81;21141;-86
2022/02/02 12:00:45;;;;;;;16.20;3.40;;;11.00;99.90;;;;;;1769498;80;21113;-84
2022/02/02 12:06:13;;;;;;;9.85;3.05;;;12.00;99.90;;;;;;1777462;80;21132;-84
2022/02/02 12:08:49;;;;;;;13.00;3.58;;;12.00;99.90;;;;;;1771144;80;21110;-86
2022/02/02 12:28:01;;;;;;;17.15;3.58;;;10.40;99.90;;;;;;1770413;80;21594;-84
2022/02/02 12:47:14;;;;;;;12.15;3.12;;;11.10;99.90;;;;;;1801508;80;21213;-83
2022/02/02 12:57:55;;;;;;;15.63;3.00;;;10.30;99.90;;;;;;1775912;80;21119;-85
2022/02/02 13:01:16;;;;;;;20.97;2.80;;;10.00;99.90;;;;;;1770560;80;21398;-84
2022/02/02 13:02:54;;;;;;;16.67;3.60;;;9.60;99.90;;;;;;1786363;78;21264;-81
2022/02/02 13:05:24;;;;;;;15.55;3.60;;;9.30;99.90;;;;;;1779971;80;21161;-84
2022/02/02 13:07:55;;;;;;;;;;;9.00;99.90;;;;;;1771597;80;21219;-85
2022/02/02 13:10:24;;;;;;;13.13;3.20;;;8.90;99.90;;;;;;1797525;80;20389;-84
2022/02/02 13:12:54;;;;;;;17.80;3.58;;;8.80;99.90;;;;;;1770277;80;21088;-84
2022/02/02 13:21:06;;;;;;;21.42;3.40;;;8.20;99.90;;;;;;1785046;80;21098;-85
2022/02/02 13:23:58;;;;;;;15.72;3.85;;;8.20;99.90;;;;;;1797586;79;21275;-86
2022/02/02 13:32:00;;;;;;;17.32;3.55;;;8.40;99.90;;;;;;1781432;79;21104;-86
2022/02/02 13:53:59;;;;;;;9.30;2.08;;;8.90;99.90;;;;;;1780587;79;21205;-87
2022/02/02 13:59:20;;;;;;;7.58;1.60;;;8.90;99.90;;;;;;1805997;78;21555;-82
2022/02/02 14:02:07;;;;;;;4.22;1.90;;;9.00;99.90;;;;;;1806963;78;21169;-87
2022/02/02 14:07:43;;;;;;;5.87;1.90;;;9.00;99.90;;;;;;1824646;78;21540;-81
2022/02/02 14:11:01;;;;;;;6.45;2.00;;;9.00;99.90;;;;;;1821587;77;21449;-80
2022/02/02 14:31:57;;;;;;;12.68;2.37;;;12.10;99.90;;;;;;1804667;79;21116;-84
2022/02/02 14:34:25;;;;;;;10.80;2.62;;;12.50;99.90;;;;;;1770613;80;21470;-82
2022/02/02 14:36:52;;;;;;;7.47;2.58;;;12.20;99.90;;;;;;1775697;78;21107;-82
2022/02/02 14:39:44;;;;;;;7.90;2.90;;;12.10;99.90;;;;;;1768103;80;21114;-77
2022/02/02 14:41:55;;;;;;;8.20;2.67;;;12.50;99.90;;;;;;1764812;80;21322;-81
2022/02/02 14:44:24;;;;;;;7.72;2.62;;;12.50;99.90;;;;;;1771710;80;21523;-80
2022/02/02 14:47:04;;;;;;;15.60;3.47;;;12.50;99.90;;;;;;1779551;80;21164;-79
2022/02/02 14:50:18;;;;;;;12.85;3.15;;;12.00;99.90;;;;;;1777365;80;21529;-80
2022/02/02 14:52:20;;;;;;;8.80;2.65;;;11.70;99.90;;;;;;1764486;80;21169;-80
2022/02/02 14:55:06;;;;;;;15.58;3.35;;;11.60;99.90;;;;;;1800792;80;21104;-80
2022/02/02 15:25:16;;;;;;;9.68;2.83;;;9.30;99.90;;;;;;1804662;79;21181;-82
2022/02/02 15:32:22;;;;;;;9.98;2.72;;;9.00;99.90;;;;;;1775658;80;21197;-81
2022/02/02 15:34:55;;;;;;;11.30;2.98;;;8.80;99.90;;;;;;1774238;80;21205;-80
2022/02/02 15:37:27;;;;;;;9.90;3.20;;;8.60;99.90;;;;;;1776612;80;21153;-80
2022/02/02 15:40:00;;;;;;;;;;;8.50;99.90;;;;;;1828521;77;21135;-78
2022/02/02 15:58:17;;;;;;;9.00;2.65;;;8.00;99.90;;;;;;1767166;80;21228;-83
2022/02/02 16:03:41;;;;;;;7.87;2.55;;;7.80;99.90;;;;;;1757791;80;21110;-88
2022/02/02 16:06:14;;;;;;;4.17;2.12;;;7.80;99.90;;;;;;1825415;76;21161;-84
2022/02/02 16:08:38;;;;;;;8.73;2.25;;;7.60;99.90;;;;;;1769196;78;21161;-87
2022/02/02 16:13:44;;;;;;;5.08;1.67;;;7.60;99.90;;;;;;1780085;80;21241;-86
2022/02/02 16:37:53;;;;;;;4.10;1.87;;;7.00;99.90;;;;;;1773019;80;21122;-86
2022/02/02 16:40:22;;;;;;;8.80;2.10;;;7.00;99.90;;;;;;1776852;80;21249;-86
2022/02/02 16:45:30;;;;;;;10.18;2.27;;;6.80;99.90;;;;;;1751077;80;21570;-87
2022/02/02 16:47:58;;;;;;;6.80;2.08;;;6.80;99.90;;;;;;1776499;80;21465;-87
2022/02/02 16:50:32;;;;;;;4.92;2.00;;;6.90;99.90;;;;;;1803654;78;21104;-86
2022/02/02 16:53:00;;;;;;;6.50;2.30;;;6.90;99.90;;;;;;1813135;78;21104;-88
2022/02/02 17:28:53;;;;;;;10.40;2.80;;;7.50;99.90;;;;;;1775370;80;21165;-83
2022/02/02 17:31:05;;;;;;;8.25;2.98;;;7.50;99.90;;;;;;1778092;78;21240;-84
2022/02/02 17:33:37;;;;;;;7.40;3.45;;;7.50;99.90;;;;;;1768532;81;21470;-84
2022/02/02 17:38:52;;;;;;;7.67;3.05;;;7.50;99.90;;;;;;1774582;80;21486;-88
2022/02/02 17:44:13;;;;;;;12.63;3.37;;;7.40;99.90;;;;;;1786422;80;21534;-86
2022/02/02 17:58:35;;;;;;;8.25;3.30;;;7.20;99.90;;;;;;1779801;80;21114;-86
2022/02/02 18:17:39;;;;;;;7.60;3.20;;;6.70;99.90;;;;;;1773825;80;21130;-86
2022/02/02 18:19:14;;;;;;;5.85;3.08;;;6.60;99.90;;;;;;1796352;78;21174;-85
2022/02/02 18:21:38;;;;;;;12.20;3.12;;;6.60;99.90;;;;;;1770893;79;21069;-85
2022/02/02 18:24:16;;;;;;;7.00;3.60;;;6.60;99.90;;;;;;1772575;79;21107;-87
2022/02/02 18:27:00;;;;;;;8.23;3.37;;;6.60;99.90;;;;;;1782019;79;21570;-86
2022/02/02 18:29:30;;;;;;;7.37;3.37;;;6.60;99.90;;;;;;1807293;79;21484;-84
2022/02/02 18:32:40;;;;;;;14.53;3.58;;;6.60;99.90;;;;;;1803140;78;21100;-84
2022/02/02 18:35:01;;;;;;;9.05;3.47;;;6.70;99.90;;;;;;1766851;79;21130;-82
2022/02/02 18:45:11;;;;;;;8.75;3.60;;;6.50;99.90;;;;;;1807657;77;21111;-80
2022/02/02 18:47:45;;;;;;;7.53;3.65;;;6.60;99.90;;;;;;1809331;77;21175;-77
2022/02/02 18:50:19;;;;;;;8.10;3.70;;;6.40;99.90;;;;;;1767440;81;21143;-78
2022/02/02 19:06:10;;;;;;;15.88;4.67;;;6.30;99.90;;;;;;1803177;77;21549;-82
2022/02/02 20:01:45;;;;;;;9.75;5.95;;;5.00;99.90;;;;;;1773259;80;21161;-82
2022/02/02 20:05:35;;;;;;;8.58;5.65;;;4.80;99.90;;;;;;1709687;82;21156;-81
2022/02/02 20:08:17;;;;;;;9.20;5.40;;;4.80;99.90;;;;;;1748906;81;21189;-80
2022/02/02 20:11:02;;;;;;;7.25;5.62;;;4.80;99.90;;;;;;1800587;78;21465;-80
2022/02/02 20:13:21;;;;;;;11.95;7.37;;;4.80;99.90;;;;;;1799188;80;21501;-79
2022/02/02 20:15:50;;;;;;;7.75;6.35;;;4.80;99.90;;;;;;1805551;79;21076;-81
2022/02/02 20:18:17;;;;;;;12.55;6.55;;;4.70;99.90;;;;;;1775069;80;21106;-80
2022/02/02 20:20:46;;;;;;;11.05;6.53;;;4.70;99.90;;;;;;1802193;78;21061;-80
2022/02/02 20:23:17;;;;;;;15.25;5.95;;;4.60;99.90;;;;;;1780577;80;21078;-79
2022/02/02 20:25:50;;;;;;;8.35;6.28;;;4.60;99.90;;;;;;1810714;78;21107;-80
2022/02/02 20:28:14;;;;;;;12.18;6.00;;;4.50;99.90;;;;;;1779162;79;21106;-81
2022/02/02 20:30:42;;;;;;;8.90;5.85;;;4.60;99.90;;;;;;1773931;80;21100;-78
2022/02/02 20:33:10;;;;;;;21.20;7.17;;;4.60;99.90;;;;;;1782546;79;21136;-81
2022/02/02 20:35:37;;;;;;;10.70;5.97;;;4.70;99.90;;;;;;1800629;79;21240;-80
2022/02/02 20:38:06;;;;;;;12.63;5.92;;;4.70;99.90;;;;;;1776337;79;21184;-79
2022/02/02 20:40:34;;;;;;;11.97;6.40;;;4.60;99.90;;;;;;1767092;80;21126;-79
2022/02/02 20:43:14;;;;;;;9.13;6.10;;;4.50;99.90;;;;;;1812138;77;21210;-80
2022/02/02 21:10:02;;;;;;;12.98;6.70;;;4.40;99.90;;;;;;1824014;77;21251;-80
2022/02/02 21:15:15;;;;;;;13.62;7.05;;;4.50;99.90;;;;;;1815982;77;21105;-79
2022/02/02 21:17:41;;;;;;;11.73;6.95;;;4.30;99.90;;;;;;1768589;80;21503;-79
2022/02/02 21:20:20;;;;;;;13.13;7.10;;;4.50;99.90;;;;;;1812201;77;21107;-81
2022/02/02 21:22:52;;;;;;;13.32;7.05;;;4.50;99.90;;;;;;1810243;77;21170;-78
2022/02/02 21:28:02;;;;;;;11.53;6.53;;;4.60;99.90;;;;;;1809893;77;21104;-80
2022/02/02 21:30:33;;;;;;;9.63;6.90;;;4.60;99.90;;;;;;1819914;77;21492;-81
2022/02/02 21:33:01;;;;;;;9.80;7.00;;;4.60;99.90;;;;;;1809411;78;21569;-80
2022/02/02 21:35:29;;;;;;;11.70;6.70;;;4.70;99.90;;;;;;1823695;77;21169;-80
2022/02/02 21:38:03;;;;;;;11.43;7.47;;;4.70;99.90;;;;;;1818153;77;21586;-79
2022/02/02 21:40:31;;;;;;;10.58;6.35;;;4.60;99.90;;;;;;1765867;80;21196;-80
2022/02/02 21:42:59;;;;;;;9.55;5.58;;;4.80;99.90;;;;;;1772665;80;21171;-80
2022/02/02 21:45:28;;;;;;;9.00;6.08;;;4.90;99.90;;;;;;1767012;80;21189;-79
2022/02/02 21:47:57;;;;;;;10.32;6.17;;;4.80;99.90;;;;;;1800404;80;21037;-79
2022/02/02 21:50:25;;;;;;;7.97;5.62;;;4.90;99.90;;;;;;1801795;78;21209;-79
2022/02/02 21:52:53;;;;;;;8.10;5.35;;;5.00;99.90;;;;;;1802224;78;21162;-79
2022/02/02 21:55:22;;;;;;;12.85;5.22;;;5.00;99.90;;;;;;1771481;79;21099;-81
2022/02/02 21:57:51;;;;;;;11.50;6.15;;;4.90;99.90;;;;;;1791319;79;21060;-80
2022/02/02 22:00:20;;;;;;;10.13;6.10;;;4.90;99.90;;;;;;1767956;79;21236;-79
2022/02/02 22:02:49;;;;;;;14.15;6.87;;;4.90;99.90;;;;;;1777190;79;21597;-82
2022/02/02 22:05:19;;;;;;;9.90;6.70;;;5.00;99.90;;;;;;1779131;80;21184;-82
2022/02/02 22:07:46;;;;;;;9.25;6.40;;;5.00;99.90;;;;;;1805033;78;21119;-83
2022/02/02 22:10:16;;;;;;;10.93;6.35;;;5.10;99.90;;;;;;1770898;79;21353;-83
2022/02/02 22:12:44;;;;;;;8.55;6.30;;;5.00;99.90;;;;;;1781769;79;21534;-83
2022/02/02 22:15:16;;;;;;;18.20;6.85;;;5.00;99.90;;;;;;1808781;78;21104;-83
2022/02/02 22:17:40;;;;;;;12.60;6.15;;;5.00;99.90;;;;;;1799266;80;21107;-84
2022/02/02 22:20:11;;;;;;;12.65;5.90;;;5.20;99.90;;;;;;1767988;79;21112;-83
2022/02/02 22:22:39;;;;;;;9.40;5.75;;;5.30;99.90;;;;;;1777177;80;21167;-82
2022/02/02 22:25:07;;;;;;;10.55;5.78;;;5.20;99.90;;;;;;1767306;80;21129;-83
2022/02/02 22:27:35;;;;;;;8.13;5.25;;;5.10;99.90;;;;;;1800845;80;21147;-81
2022/02/02 22:30:03;;;;;;;6.80;4.72;;;5.10;99.90;;;;;;1771709;79;21090;-82
2022/02/02 22:32:33;;;;;;;8.48;5.58;;;5.20;99.90;;;;;;1802330;78;21591;-85
2022/02/02 22:35:01;;;;;;;13.30;5.35;;;5.10;99.90;;;;;;1772810;79;21106;-87
2022/02/02 22:37:29;;;;;;;7.40;5.28;;;5.00;99.90;;;;;;1802711;80;21578;-85
2022/02/02 22:39:57;;;;;;;13.75;6.55;;;5.20;99.90;;;;;;1767318;80;21204;-84
2022/02/02 22:42:26;;;;;;;10.55;5.72;;;5.30;99.90;;;;;;1794210;78;21108;-85
2022/02/02 22:44:57;;;;;;;8.05;5.50;;;5.40;99.90;;;;;;1799754;78;21460;-84
2022/02/02 22:47:29;;;;;;;11.20;6.58;;;5.40;99.90;;;;;;1777670;79;21605;-85
2022/02/02 22:49:56;;;;;;;9.33;5.90;;;5.40;99.90;;;;;;1779362;79;21105;-87
2022/02/02 22:52:24;;;;;;;9.55;6.12;;;5.30;99.90;;;;;;1771407;80;21429;-83
2022/02/02 22:54:51;;;;;;;9.45;6.37;;;5.20;99.90;;;;;;1773553;79;21193;-84
2022/02/02 22:57:19;;;;;;;8.80;6.45;;;5.30;99.90;;;;;;1795392;78;21162;-86
2022/02/02 22:59:49;;;;;;;7.58;5.72;;;5.30;99.90;;;;;;1767849;79;21201;-76